createdAt,value
2018-08-09T00:01:00.653Z,23.40
2018-08-09T00:03:28.198Z,23.30
2018-08-09T00:05:55.703Z,23.20
2018-08-09T00:08:23.209Z,23.20
2018-08-09T00:10:50.697Z,23.20
2018-08-09T00:13:18.214Z,23.30
2018-08-09T00:15:45.724Z,23.30
2018-08-09T00:18:13.222Z,23.40
2018-08-09T00:20:40.651Z,23.40
2018-08-09T00:23:08.179Z,23.30
2018-08-09T00:25:35.693Z,23.30
2018-08-09T00:28:03.202Z,23.30
2018-08-09T00:30:30.696Z,23.20
2018-08-09T00:32:58.169Z,23.30
2018-08-09T00:35:25.664Z,23.30
2018-08-09T00:37:53.315Z,23.20
2018-08-09T00:40:20.789Z,23.30
2018-08-09T00:42:48.299Z,23.20
2018-08-09T00:45:15.787Z,23.10
2018-08-09T00:47:43.317Z,23.10
2018-08-09T00:50:10.799Z,23.10
2018-08-09T00:52:38.332Z,23.10
2018-08-09T00:55:06.099Z,23.10
2018-08-09T00:57:33.641Z,23.10
2018-08-09T01:00:05.386Z,23.10
2018-08-09T01:02:32.944Z,23.00
2018-08-09T01:05:15.874Z,23.00
2018-08-09T01:07:44.384Z,23.10
2018-08-09T01:10:11.949Z,23.00
2018-08-09T01:12:39.434Z,23.00
2018-08-09T01:15:06.999Z,22.90
2018-08-09T01:17:34.478Z,22.90
2018-08-09T01:20:02.082Z,22.90
2018-08-09T01:22:29.567Z,22.90
2018-08-09T01:24:57.029Z,22.90
2018-08-09T01:27:24.578Z,23.10
2018-08-09T01:29:52.123Z,23.20
2018-08-09T01:32:19.613Z,23.20
2018-08-09T01:34:47.098Z,23.10
2018-08-09T01:37:14.583Z,23.10
2018-08-09T01:39:42.119Z,23.00
2018-08-09T01:42:21.101Z,22.80
2018-08-09T01:44:48.598Z,22.60
2018-08-09T01:47:16.091Z,22.60
2018-08-09T01:49:43.585Z,22.60
2018-08-09T01:52:11.326Z,22.70
2018-08-09T01:54:38.824Z,22.70
2018-08-09T01:57:06.305Z,22.70
2018-08-09T01:59:33.766Z,22.70
2018-08-09T02:02:01.252Z,22.80
2018-08-09T02:04:28.945Z,22.80
2018-08-09T02:06:56.426Z,22.70
2018-08-09T02:09:29.443Z,22.60
2018-08-09T02:12:01.095Z,22.60
2018-08-09T02:14:29.206Z,22.60
2018-08-09T02:16:56.691Z,22.60
2018-08-09T02:19:24.221Z,22.50
2018-08-09T02:21:51.714Z,22.60
2018-08-09T02:24:19.267Z,22.60
2018-08-09T02:26:46.765Z,22.50
2018-08-09T02:29:14.282Z,22.50
2018-08-09T02:31:41.928Z,22.40
2018-08-09T02:34:09.689Z,22.40
2018-08-09T02:36:53.682Z,22.50
2018-08-09T02:39:21.200Z,22.50
2018-08-09T02:41:48.696Z,22.50
2018-08-09T02:44:16.170Z,22.50
2018-08-09T02:46:43.724Z,22.40
2018-08-09T02:49:11.179Z,22.40
2018-08-09T02:51:38.662Z,22.40
2018-08-09T02:54:06.208Z,22.30
2018-08-09T02:56:33.690Z,22.30
2018-08-09T02:59:01.306Z,22.20
2018-08-09T03:01:28.838Z,22.10
2018-08-09T03:03:56.388Z,22.10
2018-08-09T03:06:23.942Z,22.10
2018-08-09T03:08:51.441Z,22.20
2018-08-09T03:11:18.956Z,22.20
2018-08-09T03:13:46.461Z,22.20
2018-08-09T03:16:13.980Z,22.20
2018-08-09T03:18:41.457Z,22.20
2018-08-09T03:21:09.069Z,22.10
2018-08-09T03:23:36.553Z,22.10
2018-08-09T03:26:04.081Z,22.10
2018-08-09T03:28:31.581Z,22.00
2018-08-09T03:30:59.389Z,21.90
2018-08-09T03:33:26.901Z,22.00
2018-08-09T03:35:54.432Z,22.10
2018-08-09T03:38:21.882Z,22.10
2018-08-09T03:40:49.402Z,22.00
2018-08-09T03:43:16.856Z,21.90
2018-08-09T03:45:44.342Z,21.80
2018-08-09T03:48:11.871Z,21.80
2018-08-09T03:50:39.377Z,21.80
2018-08-09T03:53:06.853Z,21.80
2018-08-09T03:55:34.344Z,21.80
2018-08-09T03:58:01.835Z,21.80
2018-08-09T04:00:29.345Z,21.90
2018-08-09T04:02:56.815Z,21.80
2018-08-09T04:05:24.284Z,21.70
2018-08-09T04:07:51.762Z,21.70
2018-08-09T04:10:19.291Z,21.70
2018-08-09T04:12:46.809Z,21.70
2018-08-09T04:15:14.302Z,21.70
2018-08-09T04:17:41.818Z,21.70
2018-08-09T04:20:09.408Z,21.70
2018-08-09T04:22:36.893Z,21.70
2018-08-09T04:25:05.243Z,21.70
2018-08-09T04:27:34.173Z,21.70
2018-08-09T04:30:01.675Z,21.60
2018-08-09T04:32:29.146Z,21.60
2018-08-09T04:34:56.698Z,21.60
2018-08-09T04:37:24.342Z,21.60
2018-08-09T04:39:51.850Z,21.70
2018-08-09T04:42:19.336Z,21.70
2018-08-09T04:44:46.813Z,21.70
2018-08-09T04:47:14.259Z,21.70
2018-08-09T04:49:41.765Z,21.80
2018-08-09T04:52:09.227Z,21.80
2018-08-09T04:54:36.734Z,21.80
2018-08-09T04:57:04.218Z,21.80
2018-08-09T04:59:31.704Z,21.90
2018-08-09T05:01:59.190Z,21.90
2018-08-09T05:04:26.712Z,21.80
2018-08-09T05:06:54.418Z,21.80
2018-08-09T05:09:21.918Z,21.90
2018-08-09T05:11:49.512Z,21.90
2018-08-09T05:14:16.957Z,21.90
2018-08-09T05:16:44.475Z,21.90
2018-08-09T05:19:11.960Z,22.00
2018-08-09T05:21:39.449Z,21.90
2018-08-09T05:24:06.938Z,21.90
2018-08-09T05:26:34.540Z,21.90
2018-08-09T05:29:02.062Z,21.90
2018-08-09T05:31:29.554Z,21.90
2018-08-09T05:33:57.084Z,21.90
2018-08-09T05:36:24.618Z,22.00
2018-08-09T05:38:52.116Z,22.10
2018-08-09T05:41:19.572Z,22.10
2018-08-09T05:43:47.047Z,22.20
2018-08-09T05:46:14.546Z,22.20
2018-08-09T05:48:42.052Z,22.30
2018-08-09T05:51:09.538Z,22.30
2018-08-09T05:53:37.347Z,22.30
2018-08-09T05:56:05.424Z,22.40
2018-08-09T05:58:32.914Z,22.40
2018-08-09T06:01:00.677Z,22.30
2018-08-09T06:03:28.251Z,22.30
2018-08-09T06:05:57.852Z,22.30
2018-08-09T06:08:25.499Z,22.30
2018-08-09T06:10:53.123Z,22.50
2018-08-09T06:13:20.779Z,22.70
2018-08-09T06:15:48.357Z,22.80
2018-08-09T06:18:15.881Z,22.90
2018-08-09T06:20:43.541Z,23.20
2018-08-09T06:23:11.106Z,23.30
2018-08-09T06:25:38.704Z,23.30
2018-08-09T06:28:06.208Z,23.30
2018-08-09T06:30:33.941Z,23.30
2018-08-09T06:33:01.427Z,23.40
2018-08-09T06:35:28.960Z,23.40
2018-08-09T06:37:56.462Z,23.40
2018-08-09T06:40:23.991Z,23.50
2018-08-09T06:42:51.458Z,23.60
2018-08-09T06:45:19.003Z,23.60
2018-08-09T06:47:46.635Z,23.70
2018-08-09T06:50:14.130Z,23.80
2018-08-09T06:52:41.886Z,23.90
2018-08-09T06:55:09.355Z,24.10
2018-08-09T06:57:36.903Z,24.20
2018-08-09T07:00:07.372Z,24.30
2018-08-09T07:02:34.857Z,24.50
2018-08-09T07:05:02.583Z,24.50
2018-08-09T07:07:30.205Z,24.60
2018-08-09T07:09:58.902Z,24.60
2018-08-09T07:12:26.655Z,24.60
2018-08-09T07:14:55.340Z,24.50
2018-08-09T07:17:22.810Z,24.50
2018-08-09T07:19:50.291Z,24.50
2018-08-09T07:22:17.792Z,24.40
2018-08-09T07:24:45.793Z,24.40
2018-08-09T07:27:13.287Z,24.50
2018-08-09T07:29:40.809Z,24.40
2018-08-09T07:32:08.358Z,24.40
2018-08-09T07:34:35.875Z,24.40
2018-08-09T07:37:03.424Z,24.40
2018-08-09T07:39:31.068Z,24.40
2018-08-09T07:41:58.570Z,24.40
2018-08-09T07:44:26.025Z,24.50
2018-08-09T07:46:53.537Z,24.50
2018-08-09T07:49:21.018Z,24.60
2018-08-09T07:51:48.564Z,24.80
2018-08-09T07:54:15.778Z,24.80
2018-08-09T07:56:42.979Z,24.80
2018-08-09T07:59:10.142Z,24.90
2018-08-09T08:01:37.303Z,24.80
2018-08-09T08:04:04.492Z,24.80
2018-08-09T08:06:31.687Z,24.80
2018-08-09T08:08:58.871Z,24.90
2018-08-09T08:11:26.059Z,25.00
2018-08-09T08:13:53.206Z,25.00
2018-08-09T08:16:20.368Z,24.90
2018-08-09T08:18:47.547Z,24.80
2018-08-09T08:21:14.788Z,24.90
2018-08-09T08:23:41.955Z,24.80
2018-08-09T08:26:09.147Z,24.70
2018-08-09T08:28:36.294Z,24.70
2018-08-09T08:31:03.518Z,24.70
2018-08-09T08:33:30.707Z,24.70
2018-08-09T08:35:57.886Z,24.80
2018-08-09T08:38:25.051Z,24.90
2018-08-09T08:40:52.219Z,25.10
2018-08-09T08:43:19.390Z,25.10
2018-08-09T08:45:46.575Z,25.20
2018-08-09T08:48:13.731Z,25.30
2018-08-09T08:50:40.891Z,25.30
2018-08-09T08:53:08.137Z,25.40
2018-08-09T08:55:35.289Z,25.60
2018-08-09T08:58:02.497Z,25.70
2018-08-09T09:00:29.700Z,25.80
2018-08-09T09:02:56.851Z,26.00
2018-08-09T09:05:24.011Z,26.20
2018-08-09T09:07:51.214Z,26.40
2018-08-09T09:10:18.382Z,26.50
2018-08-09T09:12:45.614Z,26.70
2018-08-09T09:15:14.131Z,26.80
2018-08-09T09:17:42.324Z,27.10
2018-08-09T09:20:12.119Z,27.30
2018-08-09T09:22:39.686Z,27.40
2018-08-09T09:25:07.750Z,27.60
2018-08-09T09:27:34.967Z,27.70
2018-08-09T09:30:02.152Z,27.80
2018-08-09T09:32:29.319Z,27.90
2018-08-09T09:34:56.692Z,28.10
2018-08-09T09:37:23.880Z,28.30
2018-08-09T09:39:51.055Z,28.60
2018-08-09T09:42:18.219Z,28.90
2018-08-09T09:44:45.375Z,29.10
2018-08-09T09:47:12.553Z,29.30
2018-08-09T09:49:39.743Z,29.60
2018-08-09T09:52:06.872Z,29.90
2018-08-09T09:54:34.040Z,30.30
2018-08-09T09:57:01.220Z,30.70
2018-08-09T09:59:28.371Z,31.30
2018-08-09T10:01:55.555Z,31.80
2018-08-09T10:04:22.682Z,32.20
2018-08-09T10:06:49.843Z,32.60
2018-08-09T10:11:51.403Z,33.30
2018-08-09T10:14:18.582Z,33.60
2018-08-09T10:16:45.739Z,33.90
2018-08-09T10:19:12.914Z,34.10
2018-08-09T10:21:40.091Z,34.40
2018-08-09T10:24:07.299Z,34.60
2018-08-09T10:26:34.700Z,34.70
2018-08-09T10:29:01.891Z,34.80
2018-08-09T10:31:29.057Z,35.00
2018-08-09T10:33:56.207Z,34.90
2018-08-09T10:36:23.439Z,34.90
2018-08-09T10:38:50.867Z,34.90
2018-08-09T10:41:18.048Z,34.90
2018-08-09T10:43:45.206Z,34.90
2018-08-09T10:46:12.364Z,34.90
2018-08-09T10:48:39.518Z,34.90
2018-08-09T10:51:06.695Z,34.90
2018-08-09T10:53:33.859Z,34.90
2018-08-09T10:56:01.015Z,34.90
2018-08-09T10:58:28.181Z,35.00
2018-08-09T11:00:55.427Z,35.10
2018-08-09T11:03:22.607Z,35.20
2018-08-09T11:05:49.746Z,35.20
2018-08-09T11:08:16.899Z,35.40
2018-08-09T11:10:44.064Z,35.50
2018-08-09T11:13:11.275Z,35.60
2018-08-09T11:15:38.427Z,35.70
2018-08-09T11:18:05.736Z,35.80
2018-08-09T11:20:32.987Z,35.90
2018-08-09T11:23:00.168Z,35.90
2018-08-09T11:25:27.327Z,35.70
2018-08-09T11:27:54.490Z,35.80
2018-08-09T11:30:22.713Z,35.70
2018-08-09T11:32:49.877Z,35.80
2018-08-09T11:35:17.037Z,35.80
2018-08-09T11:37:44.232Z,35.70
2018-08-09T11:40:11.397Z,35.70
2018-08-09T11:42:38.580Z,35.80
2018-08-09T11:45:05.788Z,36.00
2018-08-09T11:47:32.965Z,36.00
2018-08-09T11:50:00.185Z,36.10
2018-08-09T11:52:27.349Z,36.10
2018-08-09T11:54:54.577Z,36.00
2018-08-09T11:57:21.733Z,35.90
2018-08-09T11:59:48.919Z,35.80
2018-08-09T12:02:16.109Z,35.50
2018-08-09T12:04:43.301Z,35.10
2018-08-09T12:07:10.671Z,34.70
2018-08-09T12:09:37.844Z,34.40
2018-08-09T12:12:05.232Z,34.10
2018-08-09T12:14:32.445Z,34.10
2018-08-09T12:16:59.640Z,33.90
2018-08-09T12:19:26.834Z,33.60
2018-08-09T12:21:54.089Z,33.40
2018-08-09T12:24:21.415Z,33.40
2018-08-09T12:26:48.721Z,33.30
2018-08-09T12:29:15.925Z,33.20
2018-08-09T12:34:17.133Z,32.90
2018-08-09T12:36:44.390Z,33.00
2018-08-09T12:39:12.497Z,32.90
2018-08-09T12:41:39.787Z,32.80
2018-08-09T12:44:07.061Z,32.70
2018-08-09T12:46:34.283Z,32.70
2018-08-09T12:49:01.514Z,32.60
2018-08-09T12:51:28.858Z,32.50
2018-08-09T12:53:56.126Z,31.70
2018-08-09T12:56:23.341Z,30.00
2018-08-09T12:58:50.547Z,28.60
2018-08-09T13:01:17.757Z,27.20
2018-08-09T13:03:44.966Z,26.20
2018-08-09T13:06:12.154Z,25.30
2018-08-09T13:08:39.397Z,24.50
2018-08-09T13:11:06.625Z,23.90
2018-08-09T13:13:33.840Z,23.40
2018-08-09T13:16:01.105Z,22.90
2018-08-09T13:18:28.341Z,22.70
2018-08-09T13:20:55.625Z,22.80
2018-08-09T13:23:22.879Z,22.80
2018-08-09T13:25:50.077Z,22.80
2018-08-09T13:28:17.273Z,22.80
2018-08-09T13:30:44.610Z,22.90
2018-08-09T13:33:11.797Z,23.30
2018-08-09T13:35:39.006Z,23.70
2018-08-09T13:38:06.253Z,24.00
2018-08-09T13:40:33.437Z,24.20
2018-08-09T13:43:00.637Z,24.60
2018-08-09T13:45:27.833Z,25.30
2018-08-09T13:47:55.042Z,25.70
2018-08-09T13:50:22.258Z,25.80
2018-08-09T13:52:49.509Z,25.70
2018-08-09T13:55:16.713Z,25.60
2018-08-09T13:57:44.267Z,25.50
2018-08-09T14:00:12.401Z,25.50
2018-08-09T14:02:40.608Z,25.50
2018-08-09T14:05:08.502Z,25.60
2018-08-09T14:07:35.717Z,25.80
2018-08-09T14:10:03.457Z,25.90
2018-08-09T14:12:30.653Z,25.90
2018-08-09T14:14:57.836Z,25.90
2018-08-09T14:17:26.046Z,25.90
2018-08-09T14:19:53.248Z,25.90
2018-08-09T14:22:20.454Z,25.80
2018-08-09T14:24:47.768Z,25.80
2018-08-09T14:27:14.981Z,25.80
2018-08-09T14:29:43.300Z,26.00
2018-08-09T14:32:10.490Z,26.10
2018-08-09T14:34:37.726Z,26.30
2018-08-09T14:37:05.158Z,26.50
2018-08-09T14:39:32.378Z,26.50
2018-08-09T14:41:59.710Z,26.60
2018-08-09T14:44:33.620Z,26.60
2018-08-09T14:47:00.817Z,26.60
2018-08-09T14:49:28.033Z,26.60
2018-08-09T14:51:55.260Z,26.50
2018-08-09T14:54:22.456Z,26.60
2018-08-09T14:56:49.642Z,26.70
2018-08-09T14:59:16.934Z,26.90
2018-08-09T15:01:44.101Z,27.00
2018-08-09T15:04:11.321Z,27.20
2018-08-09T15:06:38.500Z,27.30
2018-08-09T15:09:07.754Z,27.40
2018-08-09T15:11:34.972Z,27.50
2018-08-09T15:14:02.537Z,27.50
2018-08-09T15:16:29.850Z,27.50
2018-08-09T15:18:57.077Z,27.50
2018-08-09T15:21:24.361Z,27.60
2018-08-09T15:23:51.561Z,27.60
2018-08-09T15:26:18.779Z,27.70
2018-08-09T15:28:45.987Z,27.70
2018-08-09T15:31:13.177Z,27.70
2018-08-09T15:33:40.371Z,27.60
2018-08-09T15:36:07.914Z,27.60
2018-08-09T15:38:35.262Z,27.60
2018-08-09T15:41:02.486Z,27.70
2018-08-09T15:43:29.693Z,27.70
2018-08-09T15:45:56.984Z,27.60
2018-08-09T15:48:24.197Z,27.40
2018-08-09T15:50:51.475Z,27.20
2018-08-09T15:53:18.712Z,27.10
2018-08-09T15:55:45.918Z,27.00
2018-08-09T15:58:13.124Z,27.00
2018-08-09T16:00:40.409Z,26.90
2018-08-09T16:03:07.636Z,26.70
2018-08-09T16:05:34.918Z,26.50
2018-08-09T16:08:02.094Z,26.40
2018-08-09T16:10:29.295Z,26.30
2018-08-09T16:12:57.059Z,26.20
2018-08-09T16:15:24.251Z,26.10
2018-08-09T16:17:51.503Z,26.00
2018-08-09T16:20:18.814Z,25.90
2018-08-09T16:22:47.105Z,25.80
2018-08-09T16:25:15.656Z,25.70
2018-08-09T16:27:42.976Z,25.70
2018-08-09T16:30:13.370Z,25.70
2018-08-09T16:32:41.042Z,25.70
2018-08-09T16:35:08.472Z,25.70
2018-08-09T16:37:35.658Z,25.70
2018-08-09T16:40:03.947Z,25.50
2018-08-09T16:42:31.463Z,25.50
2018-08-09T16:44:58.663Z,25.50
2018-08-09T16:47:25.948Z,25.40
2018-08-09T16:49:53.142Z,25.30
2018-08-09T16:52:20.352Z,25.30
2018-08-09T16:54:47.522Z,25.30
2018-08-09T16:57:14.722Z,25.40
2018-08-09T16:59:41.911Z,25.50
2018-08-09T17:02:09.091Z,25.50
2018-08-09T17:04:36.247Z,25.40
2018-08-09T17:07:03.959Z,25.40
2018-08-09T17:09:31.244Z,25.40
2018-08-09T17:11:58.479Z,25.40
2018-08-09T17:14:25.666Z,25.40
2018-08-09T17:16:52.834Z,25.30
2018-08-09T17:19:20.031Z,25.40
2018-08-09T17:21:47.264Z,25.40
2018-08-09T17:24:14.479Z,25.40
2018-08-09T17:26:41.691Z,25.40
2018-08-09T17:29:09.606Z,25.40
2018-08-09T17:31:36.807Z,25.30
2018-08-09T17:34:04.079Z,25.30
2018-08-09T17:36:31.379Z,25.20
2018-08-09T17:38:58.576Z,25.20
2018-08-09T17:41:25.763Z,25.20
2018-08-09T17:43:52.947Z,25.30
2018-08-09T17:46:20.127Z,25.30
2018-08-09T17:48:47.395Z,25.50
2018-08-09T17:51:14.611Z,25.50
2018-08-09T17:53:41.799Z,25.50
2018-08-09T17:56:09.028Z,25.50
2018-08-09T17:58:36.207Z,25.30
2018-08-09T18:01:03.403Z,25.40
2018-08-09T18:03:31.711Z,25.40
2018-08-09T18:05:58.903Z,25.40
2018-08-09T18:08:26.093Z,25.40
2018-08-09T18:10:53.287Z,25.30
2018-08-09T18:13:20.459Z,25.30
2018-08-09T18:15:47.770Z,25.30
2018-08-09T18:18:15.072Z,25.20
2018-08-09T18:20:42.272Z,25.20
2018-08-09T18:23:09.483Z,25.20
2018-08-09T18:25:36.771Z,25.10
2018-08-09T18:28:04.265Z,25.10
2018-08-09T18:30:31.476Z,25.00
2018-08-09T18:32:58.778Z,24.90
2018-08-09T18:35:25.951Z,24.90
2018-08-09T18:37:53.156Z,24.70
2018-08-09T18:40:22.591Z,24.70
2018-08-09T18:42:49.850Z,24.70
2018-08-09T18:45:17.311Z,24.70
2018-08-09T18:47:44.507Z,24.70
2018-08-09T18:50:16.311Z,24.60
2018-08-09T18:52:43.631Z,24.60
2018-08-09T18:55:11.748Z,24.60
2018-08-09T18:57:39.416Z,24.50
2018-08-09T19:00:25.594Z,24.50
2018-08-09T19:02:53.062Z,24.50
2018-08-09T19:05:20.274Z,24.50
2018-08-09T19:07:47.527Z,24.40
2018-08-09T19:10:20.146Z,24.40
2018-08-09T19:12:47.370Z,24.40
2018-08-09T19:15:14.552Z,24.40
2018-08-09T19:17:42.215Z,24.40
2018-08-09T19:20:27.812Z,24.40
2018-08-09T19:22:55.122Z,24.40
2018-08-09T19:25:22.331Z,24.40
2018-08-09T19:27:49.551Z,24.30
2018-08-09T19:30:18.547Z,24.20
2018-08-09T19:32:45.747Z,24.20
2018-08-09T19:35:14.067Z,24.20
2018-08-09T19:37:41.534Z,24.20
2018-08-09T19:40:10.512Z,24.20
2018-08-09T19:42:38.501Z,24.20
2018-08-09T19:45:08.299Z,24.10
2018-08-09T19:47:35.499Z,24.00
2018-08-09T19:50:03.823Z,24.00
2018-08-09T19:52:31.019Z,24.00
2018-08-09T19:54:58.185Z,24.00
2018-08-09T19:57:25.387Z,23.90
2018-08-09T19:59:52.672Z,23.90
2018-08-09T20:02:19.859Z,23.90
2018-08-09T20:04:47.064Z,23.80
2018-08-09T20:07:14.347Z,23.70
2018-08-09T20:09:41.575Z,23.70
2018-08-09T20:12:08.827Z,23.70
2018-08-09T20:14:35.971Z,23.70
2018-08-09T20:17:03.232Z,23.70
2018-08-09T20:19:30.760Z,23.70
2018-08-09T20:21:57.954Z,23.70
2018-08-09T20:24:25.144Z,23.70
2018-08-09T20:26:52.375Z,23.40
2018-08-09T20:29:19.587Z,23.40
2018-08-09T20:31:46.759Z,23.30
2018-08-09T20:34:13.952Z,23.30
2018-08-09T20:36:41.102Z,23.30
2018-08-09T20:39:10.631Z,23.20
2018-08-09T20:41:37.823Z,23.20
2018-08-09T20:44:04.998Z,23.20
2018-08-09T20:46:32.199Z,23.20
2018-08-09T20:48:59.390Z,23.20
2018-08-09T20:51:26.612Z,23.20
2018-08-09T20:53:53.875Z,23.20
2018-08-09T20:56:21.076Z,23.10
2018-08-09T20:58:48.370Z,23.20
2018-08-09T21:01:15.583Z,23.20
2018-08-09T21:03:42.775Z,23.10
2018-08-09T21:06:10.035Z,23.10
2018-08-09T21:08:37.223Z,23.00
2018-08-09T21:11:04.398Z,23.00
2018-08-09T21:13:31.675Z,22.90
2018-08-09T21:15:58.836Z,22.80
2018-08-09T21:18:26.096Z,22.80
2018-08-09T21:20:53.284Z,22.90
2018-08-09T21:23:20.538Z,22.80
2018-08-09T21:25:47.663Z,22.80
2018-08-09T21:28:14.854Z,22.80
2018-08-09T21:30:42.133Z,22.80
2018-08-09T21:33:09.328Z,22.70
2018-08-09T21:35:36.475Z,22.60
2018-08-09T21:38:03.658Z,22.60
2018-08-09T21:40:30.827Z,22.60
2018-08-09T21:42:58.031Z,22.60
2018-08-09T21:45:25.228Z,22.50
2018-08-09T21:47:52.419Z,22.50
2018-08-09T21:50:21.047Z,22.50
2018-08-09T21:52:48.551Z,22.40
2018-08-09T21:55:15.734Z,22.30
2018-08-09T21:57:43.837Z,22.30
2018-08-09T22:00:59.108Z,22.30
2018-08-09T22:03:28.515Z,22.20
2018-08-09T22:06:01.439Z,22.00
2018-08-09T22:08:34.459Z,21.90
2018-08-09T22:11:07.751Z,21.80
2018-08-09T22:13:40.730Z,21.80
2018-08-09T22:16:13.782Z,21.80
2018-08-09T22:18:46.741Z,21.90
2018-08-09T22:21:19.543Z,21.80
2018-08-09T22:23:47.086Z,21.80
2018-08-09T22:26:14.287Z,21.80
2018-08-09T22:28:42.107Z,21.80
2018-08-09T22:31:09.317Z,21.80
2018-08-09T22:33:36.520Z,21.90
2018-08-09T22:36:03.695Z,21.90
2018-08-09T22:38:31.016Z,21.90
2018-08-09T22:40:58.887Z,21.80
2018-08-09T22:43:26.235Z,21.70
2018-08-09T22:45:53.844Z,21.60
2018-08-09T22:48:21.023Z,21.50
2018-08-09T22:50:48.214Z,21.50
2018-08-09T22:53:16.256Z,21.50
2018-08-09T22:55:43.513Z,21.60
2018-08-09T22:58:10.737Z,21.60
2018-08-09T23:00:37.972Z,21.60
2018-08-09T23:03:11.431Z,21.50
2018-08-09T23:06:19.303Z,21.50
2018-08-09T23:08:46.507Z,21.40
2018-08-09T23:11:13.719Z,21.30
2018-08-09T23:13:40.931Z,21.30
2018-08-09T23:16:08.151Z,21.20
2018-08-09T23:18:35.354Z,21.10
2018-08-09T23:21:02.559Z,21.10
2018-08-09T23:23:29.782Z,21.10
2018-08-09T23:25:57.002Z,21.00
2018-08-09T23:28:24.359Z,21.00
2018-08-09T23:30:51.566Z,20.90
2018-08-09T23:33:21.121Z,20.90
2018-08-09T23:35:48.496Z,20.80
2018-08-09T23:38:15.699Z,20.70
2018-08-09T23:40:42.905Z,20.70
2018-08-09T23:43:10.360Z,20.70
2018-08-09T23:45:37.539Z,20.70
2018-08-09T23:48:05.060Z,20.50
2018-08-09T23:50:32.264Z,20.30
2018-08-09T23:52:59.504Z,20.40
2018-08-09T23:55:26.724Z,20.40
2018-08-09T23:57:53.933Z,20.40
